Maarsbergen, Netherlands
Current Conditions -  °F | °C
As of 1:55 PM on Tuesday 21 Oct 2014 (Local Time) from EHDL Reporting Station
Rain Showers Rain Showers  
Wind Chill: 54°   Ceiling: 1000
Heat Index: 54°   Visibility: 4mi
Dew Point: 52°   Wind: 20mph
Humidity: 94%   Direction: 200°SSW
Pressure: 29.47"   Gusts: NA
Location:  52.06°N, 5.41°E
Report Text: EHDL 211155Z AUTO 20017KT 7000 SHRA +DZ FEW008 SCT009 BKN010 12/11 Q0998 GRN
Loading
Personal Weather Stations






























Interactive Weather Map
Tropical Storm Tracking
New forecast layout! Learn more

10-Day Weather Forecast

Advertisements
Track Severe Weather on mobile